Time;durP1;ratioP1;P1;durP2;ratioP2;P2;SDS_P1;SDS_P2;PMS_P1;PMS_P2;Temp;Humidity;BMP_temperature;BMP_pressure;BME280_temperature;BME280_humidity;BME280_pressure;Samples;Min_cycle;Max_cycle;Signal;HPM_P1;HPM_P2
2022/02/18 00:02:19;;;;;;;2.70;2.47;;;;;;;12.97;69.44;97327.89;1751693;80;21088;-62
2022/02/18 00:04:45;;;;;;;4.22;3.00;;;;;;;12.97;69.43;97323.89;1719278;80;21066;-62
2022/02/18 00:07:12;;;;;;;3.15;2.85;;;;;;;12.97;69.46;97329.77;1766680;80;21670;-63
2022/02/18 00:09:40;;;;;;;3.60;2.70;;;;;;;12.95;69.48;97338.52;1768097;80;21004;-63
2022/02/18 00:12:07;;;;;;;3.12;2.45;;;;;;;12.95;69.48;97330.53;1764201;80;21083;-63
2022/02/18 00:14:34;;;;;;;3.20;2.67;;;;;;;12.94;69.52;97334.23;1738300;80;21085;-64
2022/02/18 00:17:01;;;;;;;3.83;2.72;;;;;;;12.94;69.50;97337.72;1762254;80;21602;-62
2022/02/18 00:19:29;;;;;;;3.50;2.50;;;;;;;12.94;69.50;97339.56;1764063;80;21033;-62
2022/02/18 00:21:55;;;;;;;3.17;2.20;;;;;;;12.93;69.51;97340.09;1745310;80;21004;-62
2022/02/18 00:24:22;;;;;;;2.87;2.58;;;;;;;12.92;69.53;97347.81;1770615;80;21030;-61
2022/02/18 00:26:48;;;;;;;3.00;2.70;;;;;;;12.87;69.52;97340.27;1766899;80;22361;-62
2022/02/18 00:29:15;;;;;;;2.92;2.40;;;;;;;12.91;69.51;97348.86;1763969;81;21013;-64
2022/02/18 00:31:41;;;;;;;3.17;2.70;;;;;;;12.91;69.57;97352.05;1787357;80;21040;-61
2022/02/18 00:34:10;;;;;;;2.77;2.52;;;;;;;12.91;69.57;97358.18;1767569;80;21012;-62
2022/02/18 00:36:36;;;;;;;2.67;2.47;;;;;;;12.90;69.53;97358.41;1765496;80;21080;-62
2022/02/18 00:39:03;;;;;;;3.30;2.52;;;;;;;12.89;69.52;97359.48;1772910;80;21131;-62
2022/02/18 00:41:30;;;;;;;3.08;2.70;;;;;;;12.89;69.57;97365.61;1739442;81;21095;-62
2022/02/18 00:43:56;;;;;;;2.87;2.25;;;;;;;12.89;69.60;97360.81;1744907;80;21034;-61
2022/02/18 00:46:22;;;;;;;2.87;2.25;;;;;;;12.89;69.61;97368.81;1768110;80;21056;-62
2022/02/18 00:48:50;;;;;;;3.47;2.70;;;;;;;12.88;69.55;97376.50;1781765;80;21028;-62
2022/02/18 00:51:17;;;;;;;2.67;2.47;;;;;;;12.87;69.62;97371.70;1766486;80;21131;-63
2022/02/18 00:53:45;;;;;;;3.30;2.70;;;;;;;12.87;69.62;97381.56;1766516;80;21059;-63
2022/02/18 00:56:11;;;;;;;3.15;2.35;;;;;;;12.86;69.66;97375.41;1756389;80;21081;-62
2022/02/18 00:58:38;;;;;;;2.60;2.30;;;;;;;12.85;69.65;97377.00;1761020;80;21090;-62
2022/02/18 01:01:05;;;;;;;2.65;2.30;;;;;;;12.85;69.65;97377.00;1783792;80;21056;-62
2022/02/18 01:03:31;;;;;;;2.90;2.30;;;;;;;12.84;69.65;97381.50;1784191;78;21126;-65
2022/02/18 01:05:59;;;;;;;2.12;1.92;;;;;;;12.84;69.62;97384.70;1765016;80;21060;-62
2022/02/18 01:08:25;;;;;;;2.65;2.42;;;;;;;12.83;69.65;97393.22;1763753;80;21575;-62
2022/02/18 01:10:51;;;;;;;2.98;2.20;;;;;;;12.82;69.67;97384.13;1765677;80;21540;-63
2022/02/18 01:13:18;;;;;;;2.50;2.20;;;;;;;12.82;69.69;97389.45;1754550;80;21012;-63
2022/02/18 01:15:46;;;;;;;2.90;2.40;;;;;;;12.81;69.67;97396.65;1764403;80;21130;-63
2022/02/18 01:18:13;;;;;;;2.50;2.27;;;;;;;12.81;69.74;97407.31;1775468;80;20990;-61
2022/02/18 01:20:41;;;;;;;2.62;2.10;;;;;;;12.81;69.76;97414.50;1778197;80;21030;-62
2022/02/18 01:23:10;;;;;;;2.90;2.58;;;;;;;12.80;69.76;97420.33;1778396;80;21010;-63
2022/02/18 01:25:36;;;;;;;2.60;2.37;;;;;;;12.79;69.72;97422.73;1772336;80;21074;-62
2022/02/18 01:28:05;;;;;;;2.37;2.12;;;;;;;12.78;69.78;97423.23;1763824;79;21973;-62
2022/02/18 01:30:33;;;;;;;2.30;2.05;;;;;;;12.78;69.78;97431.22;1756856;80;21088;-61
2022/02/18 01:33:00;;;;;;;2.55;2.17;;;;;;;12.78;69.80;97431.75;1773461;80;21000;-63
2022/02/18 01:35:27;;;;;;;2.65;2.25;;;;;;;12.77;69.80;97441.61;1755528;80;21467;-61
2022/02/18 01:37:54;;;;;;;2.50;2.15;;;;;;;12.76;69.79;97438.64;1751574;80;22055;-62
2022/02/18 01:40:22;;;;;;;2.60;2.30;;;;;;;12.76;69.82;97442.64;1706035;82;21054;-63
2022/02/18 01:42:49;;;;;;;3.00;2.17;;;;;;;12.76;69.83;97450.63;1760945;80;21017;-64
2022/02/18 01:45:16;;;;;;;2.45;2.10;;;;;;;12.76;69.80;97457.83;1753639;80;22096;-63
2022/02/18 01:47:43;;;;;;;2.10;1.90;;;;;;;12.75;69.89;97457.02;1769838;78;21904;-63
2022/02/18 01:50:09;;;;;;;2.35;2.15;;;;;;;12.74;69.89;97460.72;1752090;81;21006;-63
2022/02/18 01:52:44;;;;;;;2.15;1.95;;;;;;;12.74;69.92;97473.23;1774527;80;21499;-63
2022/02/18 01:55:12;;;;;;;2.50;2.15;;;;;;;12.74;69.89;97474.58;1764770;80;21287;-64
2022/02/18 01:57:42;;;;;;;2.85;2.22;;;;;;;12.73;69.94;97487.09;1754993;80;21002;-62
2022/02/18 02:00:10;;;;;;;3.70;2.10;;;;;;;12.73;69.96;97488.42;1738348;82;21076;-62
2022/02/18 02:02:43;;;;;;;2.12;1.87;;;;;;;12.73;69.94;97496.95;1747725;80;21037;-63
2022/02/18 02:05:09;;;;;;;2.83;2.20;;;;;;;12.73;69.92;97504.94;1749496;80;21731;-63
2022/02/18 02:07:38;;;;;;;1.92;1.70;;;;;;;12.71;69.95;97502.50;1749485;80;21093;-63
2022/02/18 02:10:08;;;;;;;2.33;2.10;;;;;;;12.72;70.01;97512.63;1762489;80;21057;-64
2022/02/18 02:12:51;;;;;;;1.98;1.70;;;;;;;12.71;70.03;97521.66;1767414;80;21001;-62
2022/02/18 02:15:36;;;;;;;2.60;2.22;;;;;;;12.71;70.02;97527.81;1786171;80;21487;-63
2022/02/18 02:18:03;;;;;;;1.70;1.60;;;;;;;12.70;70.04;97537.37;1781548;80;21151;-64
2022/02/18 02:20:29;;;;;;;2.40;1.87;;;;;;;12.70;70.06;97553.35;1746896;80;20980;-62
2022/02/18 02:22:56;;;;;;;2.62;2.20;;;;;;;12.68;70.11;97562.91;1773815;80;21004;-62
2022/02/18 02:25:33;;;;;;;4.08;2.17;;;;;;;12.67;70.08;97571.95;1765262;80;20996;-64
2022/02/18 02:28:01;;;;;;;2.45;2.25;;;;;;;12.68;70.10;97584.74;1733334;80;21062;-62
2022/02/18 02:30:27;;;;;;;2.30;1.85;;;;;;;12.66;70.08;97602.28;1791918;80;21136;-62
2022/02/18 02:32:56;;;;;;;2.47;1.90;;;;;;;12.66;70.16;97611.61;1783454;80;21073;-63
2022/02/18 02:35:24;;;;;;;2.15;1.80;;;;;;;12.66;70.16;97621.46;1762221;80;21004;-63
2022/02/18 02:37:50;;;;;;;2.08;1.80;;;;;;;12.66;70.14;97632.92;1735463;81;21029;-64
2022/02/18 02:40:19;;;;;;;2.17;1.70;;;;;;;12.66;70.17;97637.45;1769516;80;20989;-63
2022/02/18 02:42:47;;;;;;;2.20;2.00;;;;;;;12.66;70.09;97650.77;1764112;80;21871;-63
2022/02/18 02:45:16;;;;;;;2.20;2.00;;;;;;;12.64;70.12;97659.52;1766270;80;21480;-63
2022/02/18 02:47:45;;;;;;;1.70;1.60;;;;;;;12.65;70.11;97667.78;1776268;79;21041;-63
2022/02/18 02:50:32;;;;;;;1.92;1.60;;;;;;;12.63;70.11;97668.53;1743514;80;21056;-63
2022/02/18 02:53:00;;;;;;;2.33;2.10;;;;;;;12.63;70.08;97677.85;1767679;80;21037;-63
2022/02/18 02:55:27;;;;;;;2.05;1.72;;;;;;;12.62;70.10;97680.24;1757213;80;21565;-62
2022/02/18 02:57:53;;;;;;;1.82;1.62;;;;;;;12.61;70.15;97682.08;1728312;80;21493;-62
2022/02/18 03:00:20;;;;;;;2.25;1.67;;;;;;;12.61;70.10;97690.06;1781622;80;21025;-63
2022/02/18 03:02:48;;;;;;;1.77;1.62;;;;;;;12.59;70.11;97694.31;1776561;79;21612;-64
2022/02/18 03:05:16;;;;;;;2.02;1.60;;;;;;;12.59;70.08;97697.48;1754175;80;21065;-63
2022/02/18 03:07:45;;;;;;;1.98;1.50;;;;;;;12.58;70.09;97699.87;1764732;80;21066;-64
2022/02/18 03:10:16;;;;;;;1.60;1.37;;;;;;;12.57;70.10;97708.89;1726253;81;21046;-62
2022/02/18 03:12:43;;;;;;;1.75;1.65;;;;;;;12.57;70.06;97716.38;1733433;80;21464;-63
2022/02/18 03:15:14;;;;;;;1.80;1.62;;;;;;;12.56;70.04;97725.40;1750700;81;21019;-63
2022/02/18 03:17:41;;;;;;;1.50;1.40;;;;;;;12.55;70.00;97728.28;1768921;80;21017;-62
2022/02/18 03:20:19;;;;;;;2.17;1.57;;;;;;;12.55;70.00;97732.28;1769990;79;21130;-62
2022/02/18 03:22:45;;;;;;;1.70;1.50;;;;;;;12.53;69.97;97738.36;1750588;80;21474;-63
2022/02/18 03:25:12;;;;;;;1.80;1.70;;;;;;;12.53;69.97;97743.69;1768914;80;21496;-65
2022/02/18 03:27:42;;;;;;;1.95;1.50;;;;;;;12.51;69.96;97743.91;1777480;80;21065;-63
2022/02/18 03:30:10;;;;;;;1.60;1.50;;;;;;;12.51;69.96;97749.76;1786091;80;21516;-62
2022/02/18 03:32:37;;;;;;;1.67;1.55;;;;;;;12.50;69.95;97757.48;1741951;81;21082;-63
2022/02/18 03:35:06;;;;;;;1.65;1.42;;;;;;;12.49;69.90;97763.30;1777154;80;20977;-62
2022/02/18 03:37:37;;;;;;;1.72;1.60;;;;;;;12.49;69.90;97766.49;1769467;79;20999;-63
2022/02/18 03:40:08;;;;;;;1.62;1.47;;;;;;;12.48;69.86;97773.68;1728427;80;21053;-63
2022/02/18 03:42:35;;;;;;;1.55;1.45;;;;;;;12.48;69.86;97766.22;1748048;80;21057;-65
2022/02/18 03:45:03;;;;;;;2.12;1.52;;;;;;;12.47;69.82;97772.56;1768190;80;21257;-63
2022/02/18 03:47:30;;;;;;;1.50;1.40;;;;;;;12.46;69.77;97782.91;1774618;80;21040;-64
2022/02/18 03:49:58;;;;;;;2.00;1.77;;;;;;;12.46;69.74;97785.58;1770526;79;21022;-62
2022/02/18 03:52:25;;;;;;;1.70;1.40;;;;;;;12.46;69.70;97790.41;1757552;81;21054;-63
2022/02/18 03:54:53;;;;;;;2.08;1.87;;;;;;;12.45;69.61;97795.95;1739723;81;21522;-63
2022/02/18 03:57:20;;;;;;;1.80;1.50;;;;;;;12.44;69.59;97792.98;1758544;80;21122;-64
2022/02/18 03:59:46;;;;;;;1.82;1.62;;;;;;;12.43;69.57;97801.50;1729456;81;21525;-64
2022/02/18 04:02:16;;;;;;;1.80;1.70;;;;;;;12.42;69.54;97803.89;1788469;80;21009;-63
2022/02/18 04:04:42;;;;;;;1.55;1.45;;;;;;;12.42;69.52;97813.70;1769703;80;21557;-62
2022/02/18 04:07:17;;;;;;;1.62;1.52;;;;;;;12.41;69.44;97808.91;1763101;80;21411;-63
2022/02/18 04:09:46;;;;;;;1.87;1.45;;;;;;;12.41;69.43;97814.77;1764121;79;21902;-64
2022/02/18 04:12:22;;;;;;;1.60;1.30;;;;;;;12.40;69.39;97820.61;1790354;80;21056;-64
2022/02/18 04:14:51;;;;;;;2.00;1.57;;;;;;;12.39;69.33;97821.64;1745161;80;21529;-63
2022/02/18 04:17:22;;;;;;;1.32;1.22;;;;;;;12.38;69.32;97826.16;1772213;80;21171;-64
2022/02/18 04:19:50;;;;;;;1.50;1.40;;;;;;;12.38;69.27;97831.98;1754533;80;21088;-64
2022/02/18 04:25:07;;;;;;;1.40;1.27;;;;;;;12.41;69.18;97822.75;1808886;76;28085;-63
2022/02/18 04:27:34;;;;;;;2.05;1.70;;;;;;;12.37;69.11;97837.03;1755621;80;22134;-64
2022/02/18 04:30:00;;;;;;;1.98;1.50;;;;;;;12.36;69.06;97840.22;1780281;79;21106;-63
2022/02/18 04:32:26;;;;;;;1.42;1.32;;;;;;;12.36;69.03;97844.71;1801414;78;21094;-63
2022/02/18 04:34:53;;;;;;;1.70;1.60;;;;;;;12.36;69.03;97852.70;1775153;78;21461;-64
2022/02/18 04:37:19;;;;;;;1.50;1.40;;;;;;;12.35;68.99;97859.08;1765001;79;20993;-64
2022/02/18 04:39:46;;;;;;;1.40;1.30;;;;;;;12.35;68.96;97871.06;1759440;80;21084;-65
2022/02/18 04:42:12;;;;;;;1.65;1.40;;;;;;;12.35;68.92;97873.72;1790796;78;21107;-63
2022/02/18 04:44:38;;;;;;;2.25;1.47;;;;;;;12.34;68.91;97872.92;1775103;78;21009;-63
2022/02/18 04:47:06;;;;;;;1.45;1.35;;;;;;;12.34;68.84;97882.23;1790348;78;20959;-64
2022/02/18 04:49:32;;;;;;;1.65;1.50;;;;;;;12.33;68.86;97887.25;1778665;78;21049;-63
2022/02/18 04:51:58;;;;;;;1.57;1.47;;;;;;;12.32;68.85;97897.63;1790196;78;21033;-64
2022/02/18 04:54:25;;;;;;;1.87;1.72;;;;;;;12.33;68.80;97907.22;1766413;78;21160;-64
2022/02/18 04:56:51;;;;;;;1.70;1.60;;;;;;;12.32;68.79;97904.78;1787054;80;21440;-64
2022/02/18 04:59:19;;;;;;;1.98;1.62;;;;;;;12.32;68.79;97911.44;1785989;78;21053;-65
2022/02/18 05:01:46;;;;;;;1.40;1.30;;;;;;;12.30;68.79;97915.65;1697780;83;21084;-64
2022/02/18 05:04:13;;;;;;;1.47;1.37;;;;;;;12.31;68.73;97925.28;1700391;82;21086;-65
2022/02/18 05:06:40;;;;;;;1.67;1.45;;;;;;;12.31;68.70;97930.60;1715043;82;21255;-63
2022/02/18 05:09:07;;;;;;;1.62;1.52;;;;;;;12.30;68.74;97937.47;1738082;80;20994;-63
2022/02/18 05:11:33;;;;;;;1.70;1.60;;;;;;;12.30;68.75;97942.80;1731402;82;21859;-63
2022/02/18 05:14:01;;;;;;;1.80;1.47;;;;;;;12.28;68.71;97946.20;1717346;80;21066;-64
2022/02/18 05:16:27;;;;;;;1.62;1.50;;;;;;;12.27;68.70;97957.38;1735272;80;21019;-64
2022/02/18 05:18:55;;;;;;;1.72;1.62;;;;;;;12.27;68.70;97957.38;1734596;80;21066;-64
2022/02/18 05:21:22;;;;;;;1.80;1.55;;;;;;;12.27;68.70;97965.89;1745590;82;21089;-64
2022/02/18 05:23:49;;;;;;;1.50;1.40;;;;;;;12.25;68.72;97974.09;1735930;80;21117;-64
2022/02/18 05:26:15;;;;;;;1.90;1.70;;;;;;;12.25;68.70;97983.94;1769429;80;21049;-64
2022/02/18 05:28:43;;;;;;;1.62;1.50;;;;;;;12.25;68.68;97991.92;1782376;79;21541;-64
2022/02/18 05:31:09;;;;;;;2.08;1.52;;;;;;;12.24;68.72;97998.27;1753931;80;21275;-64
2022/02/18 05:33:36;;;;;;;1.72;1.52;;;;;;;12.24;68.71;98002.27;1764781;80;21033;-63
2022/02/18 05:36:03;;;;;;;1.67;1.50;;;;;;;12.21;68.73;98008.86;1768986;80;21025;-63
2022/02/18 05:38:30;;;;;;;1.60;1.50;;;;;;;12.23;68.74;98018.77;1780979;78;21119;-64
2022/02/18 05:40:59;;;;;;;1.40;1.30;;;;;;;12.23;68.72;98017.92;1759736;78;21049;-63
2022/02/18 05:43:25;;;;;;;1.70;1.57;;;;;;;12.21;68.77;98023.50;1779887;78;21899;-64
2022/02/18 05:45:52;;;;;;;1.90;1.70;;;;;;;12.21;68.77;98024.83;1758514;78;21029;-64
2022/02/18 05:48:18;;;;;;;1.77;1.67;;;;;;;12.20;68.81;98033.31;1768722;79;21120;-64
2022/02/18 05:50:45;;;;;;;1.47;1.37;;;;;;;12.19;68.85;98033.55;1787906;80;20994;-64
2022/02/18 05:53:11;;;;;;;1.80;1.60;;;;;;;12.20;68.83;98038.63;1778205;80;21048;-63
2022/02/18 05:55:37;;;;;;;2.47;1.67;;;;;;;12.19;68.84;98041.54;1786377;80;22375;-63
2022/02/18 05:58:04;;;;;;;1.40;1.30;;;;;;;12.18;68.85;98042.03;1776404;79;21033;-64
2022/02/18 06:00:31;;;;;;;1.82;1.62;;;;;;;12.18;68.91;98051.35;1787052;80;21010;-65
2022/02/18 06:02:59;;;;;;;1.67;1.42;;;;;;;12.18;68.95;98059.86;1774402;79;21565;-65
2022/02/18 06:05:25;;;;;;;1.45;1.30;;;;;;;12.16;69.01;98060.60;1769060;80;21101;-64
2022/02/18 06:07:51;;;;;;;2.00;1.65;;;;;;;12.15;69.02;98071.77;1782498;79;21161;-64
2022/02/18 06:10:18;;;;;;;1.52;1.30;;;;;;;12.15;69.10;98070.97;1761398;79;21129;-64
2022/02/18 06:12:45;;;;;;;1.50;1.40;;;;;;;12.15;69.13;98078.95;1773762;78;21017;-64
2022/02/18 06:15:11;;;;;;;2.02;1.77;;;;;;;12.13;69.21;98079.17;1767485;80;21476;-64
2022/02/18 06:17:39;;;;;;;1.75;1.50;;;;;;;12.12;69.24;98083.38;1765698;78;21040;-64
2022/02/18 06:20:08;;;;;;;1.90;1.67;;;;;;;12.12;69.30;98084.70;1780438;80;22328;-65
2022/02/18 06:22:38;;;;;;;1.60;1.50;;;;;;;12.13;69.33;98092.97;1759852;80;21084;-64
2022/02/18 06:25:08;;;;;;;1.57;1.47;;;;;;;12.12;69.35;98106.00;1774584;80;21038;-63
2022/02/18 06:27:35;;;;;;;2.45;1.40;;;;;;;12.13;69.44;98114.27;1767617;78;21053;-63
2022/02/18 06:30:02;;;;;;;1.60;1.50;;;;;;;12.12;69.47;98119.30;1766872;80;20990;-65
2022/02/18 06:32:30;;;;;;;1.60;1.50;;;;;;;12.10;69.48;98116.86;1759287;79;21881;-64
2022/02/18 06:34:56;;;;;;;1.90;1.40;;;;;;;12.11;69.55;98124.31;1761819;80;21049;-64
2022/02/18 06:37:23;;;;;;;1.57;1.40;;;;;;;12.10;69.59;98128.84;1775753;79;21019;-64
2022/02/18 06:39:50;;;;;;;1.85;1.50;;;;;;;12.10;69.60;98131.50;1761969;79;21045;-64
2022/02/18 06:42:17;;;;;;;1.75;1.60;;;;;;;12.11;69.67;98137.62;1767097;78;21062;-65
2022/02/18 06:44:44;;;;;;;1.80;1.52;;;;;;;12.11;69.72;98142.95;1771799;79;21021;-65
2022/02/18 06:47:10;;;;;;;1.50;1.40;;;;;;;12.10;69.79;98151.46;1775113;79;21511;-65
2022/02/18 06:49:37;;;;;;;1.60;1.50;;;;;;;12.11;69.81;98148.27;1774563;79;21038;-64
2022/02/18 06:52:05;;;;;;;1.65;1.55;;;;;;;12.11;69.91;98153.59;1762397;79;21108;-64
2022/02/18 06:54:32;;;;;;;1.90;1.60;;;;;;;12.11;69.98;98158.43;1757713;79;20997;-65
2022/02/18 06:57:01;;;;;;;1.82;1.42;;;;;;;12.13;69.99;98166.17;1774691;79;21754;-65
2022/02/18 06:59:29;;;;;;;1.75;1.50;;;;;;;12.13;70.08;98164.84;1747031;80;21034;-65
2022/02/18 07:01:55;;;;;;;1.92;1.67;;;;;;;12.15;70.08;98166.80;1767259;79;21510;-65
2022/02/18 07:04:22;;;;;;;1.52;1.42;;;;;;;12.15;70.15;98173.45;1769109;79;21050;-64
2022/02/18 07:06:51;;;;;;;1.55;1.40;;;;;;;12.17;70.20;98163.41;1757396;79;21048;-66
2022/02/18 07:09:19;;;;;;;3.35;2.27;;;;;;;12.18;70.18;98175.14;1779602;80;21139;-65
2022/02/18 07:11:46;;;;;;;1.57;1.42;;;;;;;12.20;70.09;98173.08;1773105;79;21493;-64
2022/02/18 07:14:12;;;;;;;1.98;1.70;;;;;;;12.21;70.00;98176.58;1774345;79;21031;-65
2022/02/18 07:16:44;;;;;;;1.65;1.45;;;;;;;12.24;69.94;98180.64;1779996;80;21534;-65
2022/02/18 07:19:12;;;;;;;2.25;1.52;;;;;;;12.24;69.85;98177.45;1757881;80;21054;-66
2022/02/18 07:21:39;;;;;;;1.55;1.27;;;;;;;12.26;69.81;98188.70;1753734;80;22309;-65
2022/02/18 07:24:11;;;;;;;2.70;1.65;;;;;;;12.27;69.79;98190.34;1758301;79;21018;-64
2022/02/18 07:26:37;;;;;;;1.90;1.60;;;;;;;12.29;69.72;98191.47;1769641;79;21518;-65
2022/02/18 07:29:05;;;;;;;1.87;1.70;;;;;;;12.30;69.75;98199.22;1767182;80;21065;-64
2022/02/18 07:31:31;;;;;;;1.60;1.50;;;;;;;12.31;69.76;98201.39;1762365;80;21019;-65
2022/02/18 07:33:58;;;;;;;1.77;1.62;;;;;;;12.33;69.80;98208.64;1764558;80;22016;-65
2022/02/18 07:36:24;;;;;;;1.72;1.50;;;;;;;12.33;69.87;98205.45;1765321;80;21030;-65
2022/02/18 07:38:51;;;;;;;5.33;2.52;;;;;;;12.34;69.87;98215.09;1768891;79;21100;-66
2022/02/18 07:41:17;;;;;;;5.80;2.50;;;;;;;12.39;75.05;98187.27;1763556;79;20998;-65
2022/02/18 07:43:44;;;;;;;10.85;2.98;;;;;;;12.74;80.93;98188.61;1759007;80;21612;-66
2022/02/18 07:46:10;;;;;;;4.70;3.05;;;;;;;13.25;82.42;98194.13;1760873;79;21216;-67
2022/02/18 07:48:37;;;;;;;9.30;3.00;;;;;;;13.66;83.08;98187.80;1777094;79;21010;-66
2022/02/18 07:51:06;;;;;;;7.33;3.45;;;;;;;14.00;83.42;98228.17;1767525;79;21474;-66
2022/02/18 07:53:34;;;;;;;7.17;2.92;;;;;;;14.39;82.88;98224.61;1767172;80;21050;-65
2022/02/18 07:56:00;;;;;;;6.03;3.12;;;;;;;14.82;81.50;98223.54;1784149;79;20901;-66
2022/02/18 07:58:26;;;;;;;6.08;2.80;;;;;;;15.10;80.08;98229.49;1781022;79;21077;-65
2022/02/18 08:00:53;;;;;;;6.25;2.50;;;;;;;15.31;78.79;98230.21;1752249;79;21066;-66
2022/02/18 08:03:20;;;;;;;5.17;2.90;;;;;;;15.53;77.44;98226.93;1765576;80;21010;-67
2022/02/18 08:05:47;;;;;;;5.37;2.92;;;;;;;15.71;76.28;98222.72;1768306;79;21529;-65
2022/02/18 08:08:13;;;;;;;5.00;2.47;;;;;;;15.88;75.10;98228.17;1745550;79;21034;-66
2022/02/18 08:10:40;;;;;;;6.40;2.40;;;;;;;15.92;73.78;98229.31;1753980;80;21136;-64
2022/02/18 08:13:07;;;;;;;5.28;2.65;;;;;;;15.95;72.39;98232.56;1763027;78;21014;-68
2022/02/18 08:15:34;;;;;;;4.20;2.83;;;;;;;15.92;71.08;98229.84;1758536;79;21076;-64
2022/02/18 08:18:01;;;;;;;5.80;2.30;;;;;;;15.80;70.41;98229.06;1769926;79;21038;-65
2022/02/18 08:20:29;;;;;;;6.33;2.90;;;;;;;15.66;69.91;98229.84;1766200;79;21037;-64
2022/02/18 08:22:56;;;;;;;3.22;2.30;;;;;;;15.54;69.65;98232.02;1767081;79;21122;-65
2022/02/18 08:25:22;;;;;;;4.67;2.10;;;;;;;15.43;69.65;98238.75;1778895;80;21794;-68
2022/02/18 08:27:50;;;;;;;3.47;2.60;;;;;;;15.33;69.65;98246.03;1757312;79;21055;-67
2022/02/18 08:30:16;;;;;;;6.50;2.27;;;;;;;15.23;69.67;98233.26;1772299;79;21081;-67
2022/02/18 08:32:43;;;;;;;4.50;2.83;;;;;;;15.16;69.77;98247.80;1759508;79;21069;-65
2022/02/18 08:35:09;;;;;;;5.30;2.40;;;;;;;15.09;69.89;98253.29;1768153;79;21097;-66
2022/02/18 08:37:37;;;;;;;3.05;2.12;;;;;;;15.02;69.90;98254.73;1774699;79;21050;-67
2022/02/18 08:40:06;;;;;;;6.45;2.95;;;;;;;14.97;69.98;98255.14;1777003;79;21049;-69
2022/02/18 08:42:33;;;;;;;5.80;2.62;;;;;;;14.94;73.15;98226.48;1772650;80;21041;-69
2022/02/18 08:45:00;;;;;;;7.78;2.98;;;;;;;15.16;74.76;98240.59;1765322;80;21601;-70
2022/02/18 08:47:27;;;;;;;3.90;2.25;;;;;;;15.52;74.52;98238.14;1764623;79;21077;-69
2022/02/18 08:49:54;;;;;;;7.58;2.60;;;;;;;15.76;74.03;98243.98;1764718;79;21085;-64
2022/02/18 08:52:21;;;;;;;4.83;2.47;;;;;;;15.97;73.64;98270.09;1760646;79;21046;-65
2022/02/18 08:54:48;;;;;;;7.65;2.95;;;;;;;16.13;72.79;98280.59;1764398;79;21028;-66
2022/02/18 08:57:14;;;;;;;4.92;2.67;;;;;;;16.18;71.48;98282.53;1753300;80;21563;-68
2022/02/18 08:59:42;;;;;;;5.83;2.98;;;;;;;16.12;70.29;98285.64;1765626;80;21442;-64
2022/02/18 09:02:09;;;;;;;5.22;2.67;;;;;;;16.05;69.48;98294.34;1772737;79;21088;-65
2022/02/18 09:04:36;;;;;;;4.62;2.50;;;;;;;15.98;68.86;98293.69;1770491;79;21077;-67
2022/02/18 09:07:03;;;;;;;5.37;2.25;;;;;;;15.88;68.51;98290.29;1777593;79;21023;-64
2022/02/18 09:09:32;;;;;;;2.83;2.10;;;;;;;15.79;68.34;98296.53;1770920;80;21074;-62
2022/02/18 09:11:58;;;;;;;4.03;2.50;;;;;;;15.72;68.39;98297.15;1777037;79;21116;-63
2022/02/18 09:14:26;;;;;;;5.45;2.55;;;;;;;15.63;68.43;98299.40;1756519;80;21073;-63
2022/02/18 09:16:54;;;;;;;2.70;2.05;;;;;;;15.57;68.53;98305.70;1759811;79;21029;-62
2022/02/18 09:19:21;;;;;;;3.40;2.30;;;;;;;15.52;68.59;98309.59;1777556;78;21033;-62
2022/02/18 09:21:48;;;;;;;2.67;2.30;;;;;;;15.46;68.74;98314.02;1765376;79;21037;-62
2022/02/18 09:24:15;;;;;;;3.30;2.17;;;;;;;15.42;69.01;98314.20;1774331;79;21148;-61
2022/02/18 09:26:42;;;;;;;4.70;2.62;;;;;;;15.38;68.99;98317.59;1778989;80;22021;-62
2022/02/18 09:29:08;;;;;;;4.97;2.72;;;;;;;15.34;69.08;98323.93;1780698;80;21014;-62
2022/02/18 09:31:36;;;;;;;3.83;2.20;;;;;;;15.29;69.15;98319.80;1752926;80;21073;-62
2022/02/18 09:34:04;;;;;;;2.75;1.92;;;;;;;15.25;69.10;98327.47;1780721;79;20990;-62
2022/02/18 09:36:31;;;;;;;4.00;2.35;;;;;;;15.23;69.22;98328.76;1780646;80;22002;-62
2022/02/18 09:38:57;;;;;;;5.03;2.75;;;;;;;15.19;69.26;98332.95;1780704;80;21003;-62
2022/02/18 09:41:25;;;;;;;3.47;2.12;;;;;;;15.14;69.30;98332.29;1775074;79;21050;-62
2022/02/18 09:43:52;;;;;;;3.72;1.90;;;;;;;15.12;69.32;98331.70;1752675;81;21062;-62
2022/02/18 09:46:20;;;;;;;3.05;2.02;;;;;;;15.08;69.35;98335.36;1780502;80;21016;-62
2022/02/18 09:48:47;;;;;;;2.87;2.22;;;;;;;15.05;69.28;98346.55;1780780;80;22239;-62
2022/02/18 09:51:15;;;;;;;4.22;2.50;;;;;;;15.03;69.28;98339.81;1764373;80;21000;-62
2022/02/18 09:53:43;;;;;;;3.70;2.25;;;;;;;15.00;69.29;98354.44;1780729;79;21278;-63
2022/02/18 09:56:10;;;;;;;3.27;2.10;;;;;;;14.98;69.22;98347.16;1780612;80;21057;-62
2022/02/18 09:58:38;;;;;;;3.87;2.10;;;;;;;14.97;69.20;98352.73;1780504;79;21037;-61
2022/02/18 10:01:05;;;;;;;3.67;2.58;;;;;;;14.94;69.34;98346.00;1778812;80;21147;-62
2022/02/18 10:03:31;;;;;;;2.62;2.00;;;;;;;14.92;69.33;98346.23;1768681;80;21547;-63
2022/02/18 10:05:58;;;;;;;3.62;2.12;;;;;;;14.89;69.33;98346.70;1780534;80;21015;-62
2022/02/18 10:08:25;;;;;;;3.62;2.70;;;;;;;14.89;69.37;98351.21;1776487;80;21782;-63
2022/02/18 10:11:04;;;;;;;2.83;2.27;;;;;;;14.87;69.14;98350.63;1770450;80;21065;-62
2022/02/18 10:13:41;;;;;;;2.58;1.98;;;;;;;14.87;69.47;98355.98;1770538;80;21968;-61
2022/02/18 10:16:20;;;;;;;3.00;2.10;;;;;;;14.88;69.46;98363.77;1773421;79;21065;-61
2022/02/18 10:19:01;;;;;;;3.37;2.10;;;;;;;14.88;69.51;98365.11;1773606;80;21453;-61
2022/02/18 10:21:31;;;;;;;3.17;1.72;;;;;;;14.89;69.55;98365.92;1768268;80;21236;-62
2022/02/18 10:24:17;;;;;;;3.00;1.80;;;;;;;14.92;69.38;98364.94;1773375;79;21026;-63
2022/02/18 10:26:45;;;;;;;;;;;;;;;15.08;68.91;98369.33;1762787;79;21070;-64
2022/02/18 10:29:19;;;;;;;3.33;2.00;;;;;;;15.13;68.85;98366.78;1789705;79;20145;-64
2022/02/18 10:32:12;;;;;;;2.92;2.05;;;;;;;15.16;68.14;98370.31;1782536;79;21067;-64
2022/02/18 10:35:03;;;;;;;3.02;2.25;;;;;;;15.21;67.97;98366.97;1745182;80;21081;-64
2022/02/18 10:37:30;;;;;;;2.83;2.10;;;;;;;15.24;68.24;98370.50;1775663;80;21627;-64
2022/02/18 10:40:13;;;;;;;2.98;2.20;;;;;;;15.27;68.05;98367.38;1781254;80;21132;-64
2022/02/18 10:42:43;;;;;;;2.85;2.08;;;;;;;15.29;67.63;98375.98;1782511;79;21636;-65
2022/02/18 10:45:16;;;;;;;3.20;2.12;;;;;;;15.30;67.33;98377.63;1770434;80;22079;-64
2022/02/18 10:47:43;;;;;;;;;;;;;;;15.32;67.16;98382.22;1777144;79;21058;-63
2022/02/18 10:50:22;;;;;;;2.92;2.10;;;;;;;15.33;67.06;98385.97;1761148;80;20172;-64
2022/02/18 10:53:18;;;;;;;2.02;1.80;;;;;;;15.36;66.97;98389.26;1778084;79;21134;-63
2022/02/18 10:55:58;;;;;;;2.50;2.00;;;;;;;15.36;66.94;98394.08;1785816;80;21502;-64
2022/02/18 10:58:30;;;;;;;3.22;2.00;;;;;;;15.38;67.44;98394.66;1785983;80;21070;-64
2022/02/18 11:01:18;;;;;;;1.87;1.52;;;;;;;15.39;67.37;98402.16;1784139;79;21416;-64
2022/02/18 11:03:49;;;;;;;2.52;2.17;;;;;;;15.39;67.08;98412.33;1748807;80;21018;-63
2022/02/18 11:06:24;;;;;;;3.05;2.05;;;;;;;15.39;66.81;98414.20;1786740;79;21132;-63
2022/02/18 11:09:06;;;;;;;2.20;1.87;;;;;;;15.39;66.69;98423.03;1784852;79;21033;-63
2022/02/18 11:11:39;;;;;;;2.72;1.65;;;;;;;15.39;66.75;98423.03;1768484;79;21529;-63
2022/02/18 11:14:08;;;;;;;3.33;2.08;;;;;;;15.37;66.97;98429.14;1783518;80;21022;-64
2022/02/18 11:16:40;;;;;;;3.30;2.52;;;;;;;15.36;67.25;98430.20;1766709;80;21032;-64
2022/02/18 11:19:06;;;;;;;3.60;1.82;;;;;;;15.33;67.34;98436.00;1783169;80;21129;-63
2022/02/18 11:21:34;;;;;;;2.87;1.80;;;;;;;15.34;67.20;98435.78;1782602;80;21006;-63
2022/02/18 11:24:03;;;;;;;1.98;1.80;;;;;;;15.39;66.29;98438.28;1788362;79;21069;-64
2022/02/18 11:26:31;;;;;;;1.95;1.65;;;;;;;15.43;66.06;98433.59;1786163;79;21001;-65
2022/02/18 11:29:02;;;;;;;2.25;1.87;;;;;;;15.50;66.09;98437.48;1772441;79;21041;-64
2022/02/18 11:31:45;;;;;;;2.17;1.82;;;;;;;15.60;66.57;98439.58;1773011;80;21030;-65
2022/02/18 11:34:46;;;;;;;2.08;1.85;;;;;;;15.68;66.74;98452.61;1781599;80;20985;-65
2022/02/18 11:37:33;;;;;;;2.20;1.77;;;;;;;15.75;67.45;98447.99;1788962;80;20997;-64
2022/02/18 11:40:11;;;;;;;2.27;2.08;;;;;;;15.82;66.94;98446.02;1702985;81;22089;-65
2022/02/18 11:42:41;;;;;;;2.40;1.75;;;;;;;15.86;66.93;98449.85;1778784;80;21032;-64
2022/02/18 11:45:17;;;;;;;2.40;1.80;;;;;;;15.90;66.52;98455.56;1787203;80;21189;-64